sensor_id;sensor_type;location;lat;lon;timestamp;P1;durP1;ratioP1;P2;durP2;ratioP2
6840;SDS011;3458;53.678;14.080;2022-12-10T00:01:12;15.33;;;8.90;;
6840;SDS011;3458;53.678;14.080;2022-12-10T00:03:40;16.00;;;8.03;;
6840;SDS011;3458;53.678;14.080;2022-12-10T00:06:07;18.87;;;9.27;;
6840;SDS011;3458;53.678;14.080;2022-12-10T00:08:36;15.83;;;8.23;;
6840;SDS011;3458;53.678;14.080;2022-12-10T00:11:02;13.00;;;7.83;;
6840;SDS011;3458;53.678;14.080;2022-12-10T00:13:29;20.50;;;8.57;;
6840;SDS011;3458;53.678;14.080;2022-12-10T00:15:55;17.97;;;8.13;;
6840;SDS011;3458;53.678;14.080;2022-12-10T00:18:20;11.90;;;7.13;;
6840;SDS011;3458;53.678;14.080;2022-12-10T00:20:46;12.00;;;6.80;;
6840;SDS011;3458;53.678;14.080;2022-12-10T00:23:11;14.10;;;7.87;;
6840;SDS011;3458;53.678;14.080;2022-12-10T00:25:37;13.30;;;7.43;;
6840;SDS011;3458;53.678;14.080;2022-12-10T00:28:02;11.17;;;7.40;;
6840;SDS011;3458;53.678;14.080;2022-12-10T00:30:28;11.20;;;7.20;;
6840;SDS011;3458;53.678;14.080;2022-12-10T00:32:53;13.83;;;7.60;;
6840;SDS011;3458;53.678;14.080;2022-12-10T00:35:19;14.30;;;7.80;;
6840;SDS011;3458;53.678;14.080;2022-12-10T00:37:44;10.13;;;6.83;;
6840;SDS011;3458;53.678;14.080;2022-12-10T00:40:10;12.80;;;6.90;;
6840;SDS011;3458;53.678;14.080;2022-12-10T00:42:36;11.13;;;6.80;;
6840;SDS011;3458;53.678;14.080;2022-12-10T00:45:02;17.33;;;6.90;;
6840;SDS011;3458;53.678;14.080;2022-12-10T00:47:29;9.73;;;6.00;;
6840;SDS011;3458;53.678;14.080;2022-12-10T00:49:54;13.33;;;6.77;;
6840;SDS011;3458;53.678;14.080;2022-12-10T00:52:20;13.70;;;6.50;;
6840;SDS011;3458;53.678;14.080;2022-12-10T00:54:45;17.23;;;6.73;;
6840;SDS011;3458;53.678;14.080;2022-12-10T00:57:11;10.83;;;6.57;;
6840;SDS011;3458;53.678;14.080;2022-12-10T00:59:36;15.20;;;6.67;;
6840;SDS011;3458;53.678;14.080;2022-12-10T01:02:02;15.23;;;6.07;;
6840;SDS011;3458;53.678;14.080;2022-12-10T01:04:27;15.53;;;7.30;;
6840;SDS011;3458;53.678;14.080;2022-12-10T01:06:53;8.73;;;6.03;;
6840;SDS011;3458;53.678;14.080;2022-12-10T01:09:23;13.03;;;6.97;;
6840;SDS011;3458;53.678;14.080;2022-12-10T01:11:51;12.40;;;6.80;;
6840;SDS011;3458;53.678;14.080;2022-12-10T01:14:19;10.97;;;6.60;;
6840;SDS011;3458;53.678;14.080;2022-12-10T01:16:47;12.23;;;6.97;;
6840;SDS011;3458;53.678;14.080;2022-12-10T01:19:14;9.10;;;5.50;;
6840;SDS011;3458;53.678;14.080;2022-12-10T01:21:39;13.40;;;7.07;;
6840;SDS011;3458;53.678;14.080;2022-12-10T01:24:05;11.03;;;6.70;;
6840;SDS011;3458;53.678;14.080;2022-12-10T01:26:32;10.27;;;6.13;;
6840;SDS011;3458;53.678;14.080;2022-12-10T01:28:59;9.50;;;6.07;;
6840;SDS011;3458;53.678;14.080;2022-12-10T01:31:26;12.57;;;6.70;;
6840;SDS011;3458;53.678;14.080;2022-12-10T01:33:53;11.40;;;6.57;;
6840;SDS011;3458;53.678;14.080;2022-12-10T01:36:21;11.03;;;6.03;;
6840;SDS011;3458;53.678;14.080;2022-12-10T01:38:49;10.80;;;6.30;;
6840;SDS011;3458;53.678;14.080;2022-12-10T01:41:16;14.30;;;6.73;;
6840;SDS011;3458;53.678;14.080;2022-12-10T01:46:45;12.57;;;6.50;;
6840;SDS011;3458;53.678;14.080;2022-12-10T01:49:14;11.10;;;6.90;;
6840;SDS011;3458;53.678;14.080;2022-12-10T01:51:45;10.50;;;6.40;;
6840;SDS011;3458;53.678;14.080;2022-12-10T01:54:14;11.90;;;6.17;;
6840;SDS011;3458;53.678;14.080;2022-12-10T01:56:43;12.80;;;7.13;;
6840;SDS011;3458;53.678;14.080;2022-12-10T01:59:12;12.10;;;6.60;;
6840;SDS011;3458;53.678;14.080;2022-12-10T02:01:47;13.83;;;7.83;;
6840;SDS011;3458;53.678;14.080;2022-12-10T02:04:41;12.83;;;7.40;;
6840;SDS011;3458;53.678;14.080;2022-12-10T02:07:31;11.20;;;7.00;;
6840;SDS011;3458;53.678;14.080;2022-12-10T02:13:05;16.67;;;8.13;;
6840;SDS011;3458;53.678;14.080;2022-12-10T02:15:48;11.30;;;6.90;;
6840;SDS011;3458;53.678;14.080;2022-12-10T02:18:19;12.43;;;6.90;;
6840;SDS011;3458;53.678;14.080;2022-12-10T02:20:50;11.50;;;7.20;;
6840;SDS011;3458;53.678;14.080;2022-12-10T02:23:47;14.53;;;7.63;;
6840;SDS011;3458;53.678;14.080;2022-12-10T02:26:15;14.00;;;7.40;;
6840;SDS011;3458;53.678;14.080;2022-12-10T02:31:47;16.67;;;7.47;;
6840;SDS011;3458;53.678;14.080;2022-12-10T02:34:33;12.57;;;6.90;;
6840;SDS011;3458;53.678;14.080;2022-12-10T02:37:04;16.93;;;7.00;;
6840;SDS011;3458;53.678;14.080;2022-12-10T02:39:36;15.80;;;8.13;;
6840;SDS011;3458;53.678;14.080;2022-12-10T02:42:05;14.13;;;7.53;;
6840;SDS011;3458;53.678;14.080;2022-12-10T02:44:32;14.70;;;7.67;;
6840;SDS011;3458;53.678;14.080;2022-12-10T02:47:01;15.33;;;7.97;;
6840;SDS011;3458;53.678;14.080;2022-12-10T02:49:28;11.40;;;6.70;;
6840;SDS011;3458;53.678;14.080;2022-12-10T02:51:55;14.30;;;7.40;;
6840;SDS011;3458;53.678;14.080;2022-12-10T02:57:47;22.03;;;7.50;;
6840;SDS011;3458;53.678;14.080;2022-12-10T03:00:07;13.30;;;7.20;;
6840;SDS011;3458;53.678;14.080;2022-12-10T03:02:45;12.87;;;6.90;;
6840;SDS011;3458;53.678;14.080;2022-12-10T03:05:22;14.13;;;6.57;;
6840;SDS011;3458;53.678;14.080;2022-12-10T03:07:58;10.33;;;6.60;;
6840;SDS011;3458;53.678;14.080;2022-12-10T03:11:16;12.80;;;6.50;;
6840;SDS011;3458;53.678;14.080;2022-12-10T03:13:29;13.03;;;7.10;;
6840;SDS011;3458;53.678;14.080;2022-12-10T03:16:00;11.43;;;6.67;;
6840;SDS011;3458;53.678;14.080;2022-12-10T03:18:27;13.70;;;6.70;;
6840;SDS011;3458;53.678;14.080;2022-12-10T03:20:56;14.70;;;6.70;;
6840;SDS011;3458;53.678;14.080;2022-12-10T03:23:24;12.63;;;6.80;;
6840;SDS011;3458;53.678;14.080;2022-12-10T03:25:52;12.50;;;7.40;;
6840;SDS011;3458;53.678;14.080;2022-12-10T03:28:19;14.73;;;7.40;;
6840;SDS011;3458;53.678;14.080;2022-12-10T03:30:47;12.57;;;6.90;;
6840;SDS011;3458;53.678;14.080;2022-12-10T03:33:14;14.73;;;6.70;;
6840;SDS011;3458;53.678;14.080;2022-12-10T03:35:40;14.30;;;7.83;;
6840;SDS011;3458;53.678;14.080;2022-12-10T03:38:06;12.13;;;6.40;;
6840;SDS011;3458;53.678;14.080;2022-12-10T03:40:33;15.13;;;8.13;;
6840;SDS011;3458;53.678;14.080;2022-12-10T03:42:58;15.40;;;9.33;;
6840;SDS011;3458;53.678;14.080;2022-12-10T03:45:24;19.63;;;9.00;;
6840;SDS011;3458;53.678;14.080;2022-12-10T03:47:49;15.40;;;8.33;;
6840;SDS011;3458;53.678;14.080;2022-12-10T03:50:15;16.93;;;7.77;;
6840;SDS011;3458;53.678;14.080;2022-12-10T03:52:41;19.83;;;9.00;;
6840;SDS011;3458;53.678;14.080;2022-12-10T03:55:06;18.30;;;7.90;;
6840;SDS011;3458;53.678;14.080;2022-12-10T03:57:33;17.73;;;8.40;;
6840;SDS011;3458;53.678;14.080;2022-12-10T03:59:59;15.13;;;7.57;;
6840;SDS011;3458;53.678;14.080;2022-12-10T04:02:24;22.57;;;9.47;;
6840;SDS011;3458;53.678;14.080;2022-12-10T04:04:50;25.13;;;8.83;;
6840;SDS011;3458;53.678;14.080;2022-12-10T04:07:15;34.33;;;10.90;;
6840;SDS011;3458;53.678;14.080;2022-12-10T04:09:41;29.20;;;12.03;;
6840;SDS011;3458;53.678;14.080;2022-12-10T04:12:06;47.23;;;12.13;;
6840;SDS011;3458;53.678;14.080;2022-12-10T04:14:32;45.97;;;14.17;;
6840;SDS011;3458;53.678;14.080;2022-12-10T04:17:16;37.80;;;13.40;;
6840;SDS011;3458;53.678;14.080;2022-12-10T04:19:42;43.60;;;12.73;;
6840;SDS011;3458;53.678;14.080;2022-12-10T04:22:08;39.80;;;13.27;;
6840;SDS011;3458;53.678;14.080;2022-12-10T04:24:52;35.70;;;12.27;;
6840;SDS011;3458;53.678;14.080;2022-12-10T04:27:37;56.03;;;13.40;;
6840;SDS011;3458;53.678;14.080;2022-12-10T04:30:05;39.40;;;12.37;;
6840;SDS011;3458;53.678;14.080;2022-12-10T04:32:33;39.50;;;12.80;;
6840;SDS011;3458;53.678;14.080;2022-12-10T04:34:58;38.87;;;11.57;;
6840;SDS011;3458;53.678;14.080;2022-12-10T04:37:24;47.73;;;12.97;;
6840;SDS011;3458;53.678;14.080;2022-12-10T04:39:51;42.90;;;12.97;;
6840;SDS011;3458;53.678;14.080;2022-12-10T04:42:17;47.00;;;14.10;;
6840;SDS011;3458;53.678;14.080;2022-12-10T04:44:43;36.83;;;13.07;;
6840;SDS011;3458;53.678;14.080;2022-12-10T04:47:09;43.73;;;14.17;;
6840;SDS011;3458;53.678;14.080;2022-12-10T04:49:35;45.73;;;14.30;;
6840;SDS011;3458;53.678;14.080;2022-12-10T04:52:01;46.27;;;15.63;;
6840;SDS011;3458;53.678;14.080;2022-12-10T04:54:27;58.80;;;14.93;;
6840;SDS011;3458;53.678;14.080;2022-12-10T04:56:53;39.60;;;12.37;;
6840;SDS011;3458;53.678;14.080;2022-12-10T04:59:19;38.27;;;13.13;;
6840;SDS011;3458;53.678;14.080;2022-12-10T05:01:44;70.33;;;16.80;;
6840;SDS011;3458;53.678;14.080;2022-12-10T05:04:11;41.40;;;15.47;;
6840;SDS011;3458;53.678;14.080;2022-12-10T05:06:38;51.90;;;15.17;;
6840;SDS011;3458;53.678;14.080;2022-12-10T05:09:04;58.90;;;14.93;;
6840;SDS011;3458;53.678;14.080;2022-12-10T05:11:31;65.50;;;18.13;;
6840;SDS011;3458;53.678;14.080;2022-12-10T05:13:58;48.07;;;15.37;;
6840;SDS011;3458;53.678;14.080;2022-12-10T05:16:24;55.50;;;17.30;;
6840;SDS011;3458;53.678;14.080;2022-12-10T05:18:51;61.57;;;17.53;;
6840;SDS011;3458;53.678;14.080;2022-12-10T05:21:18;54.43;;;17.50;;
6840;SDS011;3458;53.678;14.080;2022-12-10T05:23:45;65.07;;;17.90;;
6840;SDS011;3458;53.678;14.080;2022-12-10T05:26:19;60.97;;;17.70;;
6840;SDS011;3458;53.678;14.080;2022-12-10T05:28:47;71.33;;;17.57;;
6840;SDS011;3458;53.678;14.080;2022-12-10T05:31:22;80.40;;;18.47;;
6840;SDS011;3458;53.678;14.080;2022-12-10T05:33:50;70.77;;;19.77;;
6840;SDS011;3458;53.678;14.080;2022-12-10T05:36:17;72.27;;;17.97;;
6840;SDS011;3458;53.678;14.080;2022-12-10T05:38:45;75.57;;;18.70;;
6840;SDS011;3458;53.678;14.080;2022-12-10T05:41:12;66.87;;;17.00;;
6840;SDS011;3458;53.678;14.080;2022-12-10T05:43:43;50.90;;;16.40;;
6840;SDS011;3458;53.678;14.080;2022-12-10T05:46:10;33.77;;;11.67;;
6840;SDS011;3458;53.678;14.080;2022-12-10T05:48:38;34.03;;;11.80;;
6840;SDS011;3458;53.678;14.080;2022-12-10T05:51:07;47.93;;;13.00;;
6840;SDS011;3458;53.678;14.080;2022-12-10T05:53:34;47.43;;;14.43;;
6840;SDS011;3458;53.678;14.080;2022-12-10T05:56:11;47.20;;;14.57;;
6840;SDS011;3458;53.678;14.080;2022-12-10T05:58:39;43.17;;;14.37;;
6840;SDS011;3458;53.678;14.080;2022-12-10T06:01:10;40.50;;;14.60;;
6840;SDS011;3458;53.678;14.080;2022-12-10T06:03:38;43.23;;;13.23;;
6840;SDS011;3458;53.678;14.080;2022-12-10T06:06:04;36.40;;;11.97;;
6840;SDS011;3458;53.678;14.080;2022-12-10T06:08:30;45.10;;;13.70;;
6840;SDS011;3458;53.678;14.080;2022-12-10T06:11:00;51.83;;;15.10;;
6840;SDS011;3458;53.678;14.080;2022-12-10T06:13:29;40.57;;;12.80;;
6840;SDS011;3458;53.678;14.080;2022-12-10T06:15:55;41.93;;;11.60;;
6840;SDS011;3458;53.678;14.080;2022-12-10T06:18:20;60.73;;;16.70;;
6840;SDS011;3458;53.678;14.080;2022-12-10T06:20:46;52.03;;;17.47;;
6840;SDS011;3458;53.678;14.080;2022-12-10T06:23:12;69.20;;;21.07;;
6840;SDS011;3458;53.678;14.080;2022-12-10T06:25:38;43.73;;;15.60;;
6840;SDS011;3458;53.678;14.080;2022-12-10T06:28:04;46.20;;;14.27;;
6840;SDS011;3458;53.678;14.080;2022-12-10T06:30:31;56.20;;;20.30;;
6840;SDS011;3458;53.678;14.080;2022-12-10T06:32:56;46.13;;;16.40;;
6840;SDS011;3458;53.678;14.080;2022-12-10T06:35:22;42.47;;;16.63;;
6840;SDS011;3458;53.678;14.080;2022-12-10T06:37:48;49.60;;;15.00;;
6840;SDS011;3458;53.678;14.080;2022-12-10T06:40:14;42.70;;;12.83;;
6840;SDS011;3458;53.678;14.080;2022-12-10T06:42:40;29.93;;;10.37;;
6840;SDS011;3458;53.678;14.080;2022-12-10T06:45:06;42.73;;;13.10;;
6840;SDS011;3458;53.678;14.080;2022-12-10T06:47:32;37.33;;;12.67;;
6840;SDS011;3458;53.678;14.080;2022-12-10T06:49:58;29.40;;;12.00;;
6840;SDS011;3458;53.678;14.080;2022-12-10T06:52:23;17.57;;;8.70;;
6840;SDS011;3458;53.678;14.080;2022-12-10T06:54:49;26.50;;;12.70;;
6840;SDS011;3458;53.678;14.080;2022-12-10T06:57:14;21.07;;;8.30;;
6840;SDS011;3458;53.678;14.080;2022-12-10T06:59:40;21.37;;;9.60;;
6840;SDS011;3458;53.678;14.080;2022-12-10T07:02:05;14.40;;;7.37;;
6840;SDS011;3458;53.678;14.080;2022-12-10T07:04:32;18.70;;;8.43;;
6840;SDS011;3458;53.678;14.080;2022-12-10T07:06:57;19.23;;;7.77;;
6840;SDS011;3458;53.678;14.080;2022-12-10T07:09:23;15.03;;;7.30;;
6840;SDS011;3458;53.678;14.080;2022-12-10T07:11:49;19.90;;;7.93;;
6840;SDS011;3458;53.678;14.080;2022-12-10T07:14:15;18.03;;;8.60;;
6840;SDS011;3458;53.678;14.080;2022-12-10T07:16:41;18.97;;;8.20;;
6840;SDS011;3458;53.678;14.080;2022-12-10T07:19:08;24.57;;;9.40;;
6840;SDS011;3458;53.678;14.080;2022-12-10T07:21:35;20.10;;;7.30;;
6840;SDS011;3458;53.678;14.080;2022-12-10T07:24:03;19.30;;;8.40;;
6840;SDS011;3458;53.678;14.080;2022-12-10T07:26:32;20.77;;;8.30;;
6840;SDS011;3458;53.678;14.080;2022-12-10T07:29:00;15.33;;;7.17;;
6840;SDS011;3458;53.678;14.080;2022-12-10T07:31:27;14.30;;;6.73;;
6840;SDS011;3458;53.678;14.080;2022-12-10T07:33:53;17.07;;;6.70;;
6840;SDS011;3458;53.678;14.080;2022-12-10T07:36:20;12.70;;;6.50;;
6840;SDS011;3458;53.678;14.080;2022-12-10T07:38:47;11.50;;;5.50;;
6840;SDS011;3458;53.678;14.080;2022-12-10T07:41:13;8.53;;;5.27;;
6840;SDS011;3458;53.678;14.080;2022-12-10T07:43:40;9.00;;;5.57;;
6840;SDS011;3458;53.678;14.080;2022-12-10T07:46:09;16.30;;;6.83;;
6840;SDS011;3458;53.678;14.080;2022-12-10T07:48:40;18.90;;;6.50;;
6840;SDS011;3458;53.678;14.080;2022-12-10T07:51:08;11.83;;;5.70;;
6840;SDS011;3458;53.678;14.080;2022-12-10T07:53:34;11.87;;;6.60;;
6840;SDS011;3458;53.678;14.080;2022-12-10T07:56:00;10.60;;;6.03;;
6840;SDS011;3458;53.678;14.080;2022-12-10T07:58:26;13.93;;;6.57;;
6840;SDS011;3458;53.678;14.080;2022-12-10T08:00:51;17.77;;;6.53;;
6840;SDS011;3458;53.678;14.080;2022-12-10T08:03:17;13.47;;;7.73;;
6840;SDS011;3458;53.678;14.080;2022-12-10T08:05:43;12.03;;;6.40;;
6840;SDS011;3458;53.678;14.080;2022-12-10T08:08:08;15.07;;;6.53;;
6840;SDS011;3458;53.678;14.080;2022-12-10T08:10:34;14.40;;;7.00;;
6840;SDS011;3458;53.678;14.080;2022-12-10T08:13:04;11.33;;;6.57;;
6840;SDS011;3458;53.678;14.080;2022-12-10T08:15:30;13.50;;;6.37;;
6840;SDS011;3458;53.678;14.080;2022-12-10T08:17:56;12.97;;;6.60;;
6840;SDS011;3458;53.678;14.080;2022-12-10T08:20:22;12.80;;;7.07;;
6840;SDS011;3458;53.678;14.080;2022-12-10T08:22:48;16.70;;;7.83;;
6840;SDS011;3458;53.678;14.080;2022-12-10T08:25:14;19.47;;;7.73;;
6840;SDS011;3458;53.678;14.080;2022-12-10T08:27:40;14.37;;;7.40;;
6840;SDS011;3458;53.678;14.080;2022-12-10T08:30:06;20.90;;;8.17;;
6840;SDS011;3458;53.678;14.080;2022-12-10T08:32:32;22.93;;;8.70;;
6840;SDS011;3458;53.678;14.080;2022-12-10T08:34:57;20.17;;;8.90;;
6840;SDS011;3458;53.678;14.080;2022-12-10T08:37:23;13.23;;;8.00;;
6840;SDS011;3458;53.678;14.080;2022-12-10T08:39:48;16.50;;;8.07;;
6840;SDS011;3458;53.678;14.080;2022-12-10T08:42:14;17.43;;;8.60;;
6840;SDS011;3458;53.678;14.080;2022-12-10T08:44:40;19.50;;;8.17;;
6840;SDS011;3458;53.678;14.080;2022-12-10T08:47:05;20.97;;;8.70;;
6840;SDS011;3458;53.678;14.080;2022-12-10T08:49:31;34.07;;;11.97;;
6840;SDS011;3458;53.678;14.080;2022-12-10T08:51:57;31.07;;;12.60;;
6840;SDS011;3458;53.678;14.080;2022-12-10T08:54:22;32.80;;;13.80;;
6840;SDS011;3458;53.678;14.080;2022-12-10T08:56:48;28.43;;;12.10;;
6840;SDS011;3458;53.678;14.080;2022-12-10T08:59:13;21.27;;;11.53;;
6840;SDS011;3458;53.678;14.080;2022-12-10T09:01:39;27.87;;;12.87;;
6840;SDS011;3458;53.678;14.080;2022-12-10T09:04:04;34.57;;;14.10;;
6840;SDS011;3458;53.678;14.080;2022-12-10T09:06:30;26.53;;;13.23;;
6840;SDS011;3458;53.678;14.080;2022-12-10T09:08:56;28.70;;;12.50;;
6840;SDS011;3458;53.678;14.080;2022-12-10T09:11:26;35.30;;;12.13;;
6840;SDS011;3458;53.678;14.080;2022-12-10T09:13:53;17.87;;;9.50;;
6840;SDS011;3458;53.678;14.080;2022-12-10T09:16:20;27.47;;;12.63;;
6840;SDS011;3458;53.678;14.080;2022-12-10T09:18:46;31.93;;;11.33;;
6840;SDS011;3458;53.678;14.080;2022-12-10T09:21:15;27.83;;;11.43;;
6840;SDS011;3458;53.678;14.080;2022-12-10T09:23:42;37.87;;;12.27;;
6840;SDS011;3458;53.678;14.080;2022-12-10T09:26:09;28.63;;;11.63;;
6840;SDS011;3458;53.678;14.080;2022-12-10T09:28:36;29.30;;;12.13;;
6840;SDS011;3458;53.678;14.080;2022-12-10T09:31:03;35.53;;;12.07;;
6840;SDS011;3458;53.678;14.080;2022-12-10T09:33:30;33.77;;;13.10;;
6840;SDS011;3458;53.678;14.080;2022-12-10T09:35:56;37.03;;;13.07;;
6840;SDS011;3458;53.678;14.080;2022-12-10T09:38:22;30.53;;;12.00;;
6840;SDS011;3458;53.678;14.080;2022-12-10T09:40:50;33.10;;;14.40;;
6840;SDS011;3458;53.678;14.080;2022-12-10T09:52:03;30.13;;;11.10;;
6840;SDS011;3458;53.678;14.080;2022-12-10T09:54:48;28.33;;;12.57;;
6840;SDS011;3458;53.678;14.080;2022-12-10T09:57:21;33.70;;;12.60;;
6840;SDS011;3458;53.678;14.080;2022-12-10T09:59:50;27.93;;;12.33;;
6840;SDS011;3458;53.678;14.080;2022-12-10T10:02:19;27.37;;;11.53;;
6840;SDS011;3458;53.678;14.080;2022-12-10T10:04:51;28.50;;;13.00;;
6840;SDS011;3458;53.678;14.080;2022-12-10T10:07:20;20.07;;;10.93;;
6840;SDS011;3458;53.678;14.080;2022-12-10T10:09:51;30.47;;;11.63;;
6840;SDS011;3458;53.678;14.080;2022-12-10T10:12:21;25.37;;;11.70;;
6840;SDS011;3458;53.678;14.080;2022-12-10T10:14:47;26.03;;;10.90;;
6840;SDS011;3458;53.678;14.080;2022-12-10T10:17:19;25.57;;;10.27;;
6840;SDS011;3458;53.678;14.080;2022-12-10T10:19:47;21.03;;;8.80;;
6840;SDS011;3458;53.678;14.080;2022-12-10T10:22:14;35.47;;;11.77;;
6840;SDS011;3458;53.678;14.080;2022-12-10T10:24:41;25.33;;;10.13;;
6840;SDS011;3458;53.678;14.080;2022-12-10T10:27:11;27.50;;;9.10;;
6840;SDS011;3458;53.678;14.080;2022-12-10T10:29:39;24.50;;;10.23;;
6840;SDS011;3458;53.678;14.080;2022-12-10T10:32:13;21.00;;;8.20;;
6840;SDS011;3458;53.678;14.080;2022-12-10T10:34:42;17.10;;;8.47;;
6840;SDS011;3458;53.678;14.080;2022-12-10T10:37:20;20.50;;;8.70;;
6840;SDS011;3458;53.678;14.080;2022-12-10T10:39:57;18.60;;;8.83;;
6840;SDS011;3458;53.678;14.080;2022-12-10T10:42:27;29.90;;;8.50;;
6840;SDS011;3458;53.678;14.080;2022-12-10T10:45:30;19.83;;;8.30;;
6840;SDS011;3458;53.678;14.080;2022-12-10T10:50:42;18.00;;;8.27;;
6840;SDS011;3458;53.678;14.080;2022-12-10T10:53:29;14.33;;;7.23;;
6840;SDS011;3458;53.678;14.080;2022-12-10T10:56:18;14.07;;;7.20;;
6840;SDS011;3458;53.678;14.080;2022-12-10T10:59:07;21.43;;;10.13;;
6840;SDS011;3458;53.678;14.080;2022-12-10T11:01:51;16.93;;;7.57;;
6840;SDS011;3458;53.678;14.080;2022-12-10T11:04:29;14.90;;;7.30;;
6840;SDS011;3458;53.678;14.080;2022-12-10T11:07:03;22.87;;;7.60;;
6840;SDS011;3458;53.678;14.080;2022-12-10T11:09:44;13.10;;;7.13;;
6840;SDS011;3458;53.678;14.080;2022-12-10T11:15:04;14.50;;;7.37;;
6840;SDS011;3458;53.678;14.080;2022-12-10T11:17:52;17.87;;;7.37;;
6840;SDS011;3458;53.678;14.080;2022-12-10T11:20:20;11.60;;;6.60;;
6840;SDS011;3458;53.678;14.080;2022-12-10T11:23:00;10.67;;;5.83;;
6840;SDS011;3458;53.678;14.080;2022-12-10T11:28:39;12.10;;;6.53;;
6840;SDS011;3458;53.678;14.080;2022-12-10T11:31:29;11.77;;;6.57;;
6840;SDS011;3458;53.678;14.080;2022-12-10T11:34:11;8.90;;;5.83;;
6840;SDS011;3458;53.678;14.080;2022-12-10T11:36:58;14.37;;;7.20;;
6840;SDS011;3458;53.678;14.080;2022-12-10T11:39:43;14.00;;;7.10;;
6840;SDS011;3458;53.678;14.080;2022-12-10T11:42:30;11.87;;;7.23;;
6840;SDS011;3458;53.678;14.080;2022-12-10T11:45:19;30.17;;;15.73;;
6840;SDS011;3458;53.678;14.080;2022-12-10T11:48:05;23.07;;;12.77;;
6840;SDS011;3458;53.678;14.080;2022-12-10T11:51:02;16.13;;;8.03;;
6840;SDS011;3458;53.678;14.080;2022-12-10T11:56:21;11.63;;;6.30;;
6840;SDS011;3458;53.678;14.080;2022-12-10T12:07:38;12.67;;;7.57;;
6840;SDS011;3458;53.678;14.080;2022-12-10T12:13:33;13.70;;;7.90;;
6840;SDS011;3458;53.678;14.080;2022-12-10T12:15:51;12.70;;;7.03;;
6840;SDS011;3458;53.678;14.080;2022-12-10T12:18:43;171.23;;;62.00;;
6840;SDS011;3458;53.678;14.080;2022-12-10T12:21:15;22.73;;;11.90;;
6840;SDS011;3458;53.678;14.080;2022-12-10T12:23:52;11.47;;;7.27;;
6840;SDS011;3458;53.678;14.080;2022-12-10T12:26:38;13.33;;;6.70;;
6840;SDS011;3458;53.678;14.080;2022-12-10T12:29:15;13.63;;;7.23;;
6840;SDS011;3458;53.678;14.080;2022-12-10T12:31:54;13.00;;;6.63;;
6840;SDS011;3458;53.678;14.080;2022-12-10T12:34:50;12.87;;;6.47;;
6840;SDS011;3458;53.678;14.080;2022-12-10T12:37:25;11.73;;;6.80;;
6840;SDS011;3458;53.678;14.080;2022-12-10T12:42:35;28.90;;;15.60;;
6840;SDS011;3458;53.678;14.080;2022-12-10T12:45:24;19.03;;;10.13;;
6840;SDS011;3458;53.678;14.080;2022-12-10T12:51:07;15.27;;;7.20;;
6840;SDS011;3458;53.678;14.080;2022-12-10T12:53:37;9.20;;;5.67;;
6840;SDS011;3458;53.678;14.080;2022-12-10T12:56:07;13.07;;;7.20;;
6840;SDS011;3458;53.678;14.080;2022-12-10T12:58:50;9.67;;;5.70;;
6840;SDS011;3458;53.678;14.080;2022-12-10T13:01:23;10.03;;;5.57;;
6840;SDS011;3458;53.678;14.080;2022-12-10T13:03:54;11.10;;;6.50;;
6840;SDS011;3458;53.678;14.080;2022-12-10T13:06:26;9.10;;;5.17;;
6840;SDS011;3458;53.678;14.080;2022-12-10T13:19:16;10.00;;;5.03;;
6840;SDS011;3458;53.678;14.080;2022-12-10T13:24:18;9.70;;;5.67;;
6840;SDS011;3458;53.678;14.080;2022-12-10T13:37:34;21.13;;;9.60;;
6840;SDS011;3458;53.678;14.080;2022-12-10T13:42:34;10.57;;;5.43;;
6840;SDS011;3458;53.678;14.080;2022-12-10T13:47:48;82.27;;;39.30;;
6840;SDS011;3458;53.678;14.080;2022-12-10T14:01:12;10.73;;;5.63;;
6840;SDS011;3458;53.678;14.080;2022-12-10T14:03:58;15.00;;;6.47;;
6840;SDS011;3458;53.678;14.080;2022-12-10T14:06:44;8.83;;;4.97;;
6840;SDS011;3458;53.678;14.080;2022-12-10T14:11:38;12.37;;;7.10;;
6840;SDS011;3458;53.678;14.080;2022-12-10T14:14:11;14.13;;;6.80;;
6840;SDS011;3458;53.678;14.080;2022-12-10T14:16:48;15.23;;;7.77;;
6840;SDS011;3458;53.678;14.080;2022-12-10T14:19:15;12.40;;;7.40;;
6840;SDS011;3458;53.678;14.080;2022-12-10T14:21:42;17.60;;;7.10;;
6840;SDS011;3458;53.678;14.080;2022-12-10T14:26:57;18.77;;;7.07;;
6840;SDS011;3458;53.678;14.080;2022-12-10T14:29:29;13.10;;;7.20;;
6840;SDS011;3458;53.678;14.080;2022-12-10T14:31:55;13.23;;;7.23;;
6840;SDS011;3458;53.678;14.080;2022-12-10T14:34:25;12.23;;;6.07;;
6840;SDS011;3458;53.678;14.080;2022-12-10T14:36:54;10.70;;;6.47;;
6840;SDS011;3458;53.678;14.080;2022-12-10T14:39:26;11.60;;;5.93;;
6840;SDS011;3458;53.678;14.080;2022-12-10T14:41:54;12.00;;;6.80;;
6840;SDS011;3458;53.678;14.080;2022-12-10T14:44:22;15.33;;;8.27;;
6840;SDS011;3458;53.678;14.080;2022-12-10T14:46:48;17.70;;;8.73;;
6840;SDS011;3458;53.678;14.080;2022-12-10T14:49:23;19.90;;;8.80;;
6840;SDS011;3458;53.678;14.080;2022-12-10T14:51:51;14.63;;;6.87;;
6840;SDS011;3458;53.678;14.080;2022-12-10T14:54:50;11.40;;;6.90;;
6840;SDS011;3458;53.678;14.080;2022-12-10T14:57:13;11.83;;;7.70;;
6840;SDS011;3458;53.678;14.080;2022-12-10T14:59:50;14.70;;;7.80;;
6840;SDS011;3458;53.678;14.080;2022-12-10T15:02:28;11.90;;;7.03;;
6840;SDS011;3458;53.678;14.080;2022-12-10T15:04:56;15.07;;;7.70;;
6840;SDS011;3458;53.678;14.080;2022-12-10T15:07:22;11.90;;;7.60;;
6840;SDS011;3458;53.678;14.080;2022-12-10T15:09:50;17.10;;;6.90;;
6840;SDS011;3458;53.678;14.080;2022-12-10T15:12:25;14.07;;;8.00;;
6840;SDS011;3458;53.678;14.080;2022-12-10T15:14:55;16.40;;;7.80;;
6840;SDS011;3458;53.678;14.080;2022-12-10T15:17:41;23.17;;;8.63;;
6840;SDS011;3458;53.678;14.080;2022-12-10T15:20:30;14.50;;;7.50;;
6840;SDS011;3458;53.678;14.080;2022-12-10T15:23:08;19.77;;;8.70;;
6840;SDS011;3458;53.678;14.080;2022-12-10T15:25:46;16.17;;;7.83;;
6840;SDS011;3458;53.678;14.080;2022-12-10T15:28:23;14.70;;;7.53;;
6840;SDS011;3458;53.678;14.080;2022-12-10T15:30:50;13.90;;;7.83;;
6840;SDS011;3458;53.678;14.080;2022-12-10T15:33:26;14.77;;;8.10;;
6840;SDS011;3458;53.678;14.080;2022-12-10T15:35:56;15.63;;;8.43;;
6840;SDS011;3458;53.678;14.080;2022-12-10T15:38:23;19.10;;;9.33;;
6840;SDS011;3458;53.678;14.080;2022-12-10T15:40:49;18.67;;;9.80;;
6840;SDS011;3458;53.678;14.080;2022-12-10T15:43:24;26.70;;;9.40;;
6840;SDS011;3458;53.678;14.080;2022-12-10T15:45:52;30.67;;;9.77;;
6840;SDS011;3458;53.678;14.080;2022-12-10T15:48:17;24.33;;;9.10;;
6840;SDS011;3458;53.678;14.080;2022-12-10T15:50:45;20.67;;;10.77;;
6840;SDS011;3458;53.678;14.080;2022-12-10T15:53:11;52.57;;;22.40;;
6840;SDS011;3458;53.678;14.080;2022-12-10T15:55:37;25.47;;;10.10;;
6840;SDS011;3458;53.678;14.080;2022-12-10T15:58:04;28.27;;;11.13;;
6840;SDS011;3458;53.678;14.080;2022-12-10T16:00:35;27.90;;;10.90;;
6840;SDS011;3458;53.678;14.080;2022-12-10T16:03:02;38.47;;;16.50;;
6840;SDS011;3458;53.678;14.080;2022-12-10T16:05:30;58.33;;;22.37;;
6840;SDS011;3458;53.678;14.080;2022-12-10T16:07:59;28.13;;;11.90;;
6840;SDS011;3458;53.678;14.080;2022-12-10T16:10:37;19.93;;;10.50;;
6840;SDS011;3458;53.678;14.080;2022-12-10T16:13:03;22.40;;;11.50;;
6840;SDS011;3458;53.678;14.080;2022-12-10T16:15:32;25.37;;;11.80;;
6840;SDS011;3458;53.678;14.080;2022-12-10T16:18:01;24.67;;;11.73;;
6840;SDS011;3458;53.678;14.080;2022-12-10T16:20:28;40.73;;;14.40;;
6840;SDS011;3458;53.678;14.080;2022-12-10T16:22:55;24.13;;;12.57;;
6840;SDS011;3458;53.678;14.080;2022-12-10T16:25:22;29.13;;;11.43;;
6840;SDS011;3458;53.678;14.080;2022-12-10T16:27:50;27.53;;;12.30;;
6840;SDS011;3458;53.678;14.080;2022-12-10T16:30:17;21.77;;;11.23;;
6840;SDS011;3458;53.678;14.080;2022-12-10T16:32:45;27.40;;;11.60;;
6840;SDS011;3458;53.678;14.080;2022-12-10T16:35:11;18.63;;;9.70;;